Create Tblcommutelog Verified Points Advance Search
| # | Trip ID | Id Commuter | Trip Date | Trip Num | Current Lat | Current Lng | Delta Distance | Current Time | Activity | Activity Confidence | Current Speed | |
|---|---|---|---|---|---|---|---|---|---|---|---|---|
| 70261 | 250930_785785_16653981_1706 | 785785 | (not set) | (not set) | 38.92593063696 | -77.204587957059 | 12.3604 | 2025-09-30 17:39:32 | in_vehicle | 100 | 2.1189660876018 | |
| 70262 | 250930_785533_16653687_1714 | 785533 | (not set) | (not set) | 39.301406540662 | -76.627327886517 | 1.7701 | 2025-09-30 17:39:32 | on_bicycle | 100 | 2.838699294572 | |
| 70263 | 250930_789022_16657785_1624 | 789022 | (not set) | (not set) | 38.949204743524 | -76.909912147113 | 31.1782 | 2025-09-30 17:39:32 | in_vehicle | 100 | 10.644004756498 | |
| 70264 | 250930_785533_16653687_1714 | 785533 | (not set) | (not set) | 39.301406540662 | -76.627327886517 | 1.7701 | 2025-09-30 17:39:32 | on_bicycle | 100 | 2.838699294572 | |
| 70265 | 250930_775422_16642886_1720 | 775422 | (not set) | (not set) | 38.932191408335 | -77.257246395454 | 5.7405 | 2025-09-30 17:39:32 | in_vehicle | 100 | 10.295314134487 | |
| 70266 | 250930_785822_16656269_1723 | 785822 | (not set) | (not set) | 38.9525075657 | -76.964986762777 | 3.8748 | 2025-09-30 17:39:33 | in_vehicle | 100 | 3.0398669611165 | |
| 70267 | 250930_785264_16653381_1609 | 785264 | (not set) | (not set) | 38.915557381251 | -77.486604951628 | 30.2862 | 2025-09-30 17:39:34 | in_vehicle | 100 | 5.5745795595769 | |
| 70268 | 250930_738572_16603589_1708 | 738572 | (not set) | (not set) | 38.91685560559 | -76.961467595123 | 4.2467 | 2025-09-30 17:39:36 | in_vehicle | 100 | 8.6949135873112 | |
| 70269 | 250930_740883_0_1704 | 740883 | (not set) | (not set) | 38.907320162294 | -76.936286790457 | 7.1469 | 2025-09-30 17:39:35 | in_vehicle | 100 | 6.8888749810008 | |
| 70270 | 250930_781975_16654380_1658 | 781975 | (not set) | (not set) | 38.817121130916 | -77.134327423307 | 10.3139 | 2025-09-30 17:39:36 | in_vehicle | 100 | 13.080368717981 | |
| 70271 | 250930_786504_16654846_1736 | 786504 | (not set) | (not set) | 38.983663689097 | -76.946847268363 | 0.6189 | 2025-09-30 17:39:36 | on_bicycle | 100 | 3.4332615090257 | |
| 70272 | 250930_786504_16654846_1736 | 786504 | (not set) | (not set) | 38.983663689097 | -76.946847268363 | 0.6189 | 2025-09-30 17:39:36 | on_bicycle | 100 | 3.4332615090257 | |
| 70273 | 250930_786504_16654846_1736 | 786504 | (not set) | (not set) | 38.983663689097 | -76.946847268363 | 0.6189 | 2025-09-30 17:39:36 | on_bicycle | 100 | 3.4332615090257 | |
| 70274 | 250930_785147_16653236_1644 | 785147 | (not set) | (not set) | 38.999994283333 | -77.910052166667 | 29.1864 | 2025-09-30 17:39:37 | in_vehicle | 100 | 9.7722782014717 | |
| 70275 | 250930_788422_16657041_1727 | 788422 | (not set) | (not set) | 39.297488400515 | -76.615388846958 | 1.5857 | 2025-09-30 17:39:39 | in_vehicle | 100 | 1.4707591620696 | |
| 70276 | 250930_788475_16657104_1614 | 788475 | (not set) | (not set) | 38.603109597558 | -76.873304387993 | 30.7003 | 2025-09-30 17:39:40 | in_vehicle | 100 | 9.6426368163652 | |
| 70277 | 250930_788105_16656667_1627 | 788105 | (not set) | (not set) | 38.811430177469 | -76.817836755151 | 15.8517 | 2025-09-30 17:39:40 | unknown | 100 | 10.460718660313 | |
| 70278 | 250930_781975_16654380_1658 | 781975 | (not set) | (not set) | 38.816622887751 | -77.135544625553 | 10.388 | 2025-09-30 17:39:40 | in_vehicle | 100 | 13.46482248071 | |
| 70279 | 250930_770164_16637262_1730 | 770164 | (not set) | (not set) | 38.890607182837 | -77.177115820412 | 3.0988 | 2025-09-30 17:39:41 | on_foot | 100 | 4.076998041968 | |
| 70280 | 250930_770164_16637262_1730 | 770164 | (not set) | (not set) | 38.890607182837 | -77.177115820412 | 3.0988 | 2025-09-30 17:39:41 | on_foot | 100 | 4.076998041968 |